Terminal Aerodrome Forecast
Issued by NWS Jackson, MS

Home | Current Version | Previous Version | Text Only | Print | Product List | Glossary On
Versions: 1 2 3 4 5 6 7 8 9 10 11 12
722
FTUS44 KJAN 222341
TAFGLH
TAF
KGLH 222341Z 2300/2324 26008KT P6SM SCT025 SCT035
     FM230800 27008KT P6SM BKN015 OVC025
     FM231100 26008KT 6SM BR OVC007
     FM231600 27008KT P6SM OVC015
     FM232100 27010KT P6SM BKN025 BKN035=

USA.gov is the U.S. government's official web portal to all federal, state and local government web resources and services.